createdAt,value
2022-12-08T00:06:52.190Z,3
2022-12-08T00:16:52.752Z,2.9
2022-12-08T00:26:53.242Z,2.8
2022-12-08T00:36:53.980Z,2.8
2022-12-08T00:46:54.280Z,2.9
2022-12-08T00:56:54.460Z,3
2022-12-08T01:06:54.881Z,3.1
2022-12-08T01:16:55.249Z,3.1
2022-12-08T01:36:55.503Z,3.1
2022-12-08T01:46:56.576Z,3.1
2022-12-08T01:56:56.895Z,3.1
2022-12-08T02:06:57.130Z,3.1
2022-12-08T02:16:57.876Z,3.2
2022-12-08T02:27:03.746Z,3.2
2022-12-08T02:37:04.001Z,3.2
2022-12-08T02:47:04.316Z,3.2
2022-12-08T02:57:04.957Z,3.3
2022-12-08T03:07:05.797Z,3.3
2022-12-08T03:17:06.716Z,3.3
2022-12-08T03:27:07.274Z,3.3
2022-12-08T03:37:07.866Z,3.3
2022-12-08T03:47:08.096Z,3.3
2022-12-08T03:57:08.555Z,3.3
2022-12-08T04:07:09.288Z,3.3
2022-12-08T04:27:09.825Z,3.3
2022-12-08T04:37:10.914Z,3.3
2022-12-08T04:47:11.429Z,3.3
2022-12-08T04:57:12.433Z,3.3
2022-12-08T05:07:13.501Z,3.3
2022-12-08T05:17:14.468Z,3.3
2022-12-08T05:27:14.767Z,3.2
2022-12-08T05:37:15.787Z,3.2
2022-12-08T05:57:17.347Z,3.2
2022-12-08T06:07:18.139Z,3.2
2022-12-08T06:27:19.662Z,3.2
2022-12-08T06:47:24.765Z,3.2
2022-12-08T07:07:21.710Z,3.1
2022-12-08T08:27:25.190Z,2.8
2022-12-08T08:47:26.577Z,2.7
2022-12-08T09:07:28.044Z,2.5
2022-12-08T09:17:28.748Z,2.4
2022-12-08T09:27:29.602Z,2.4
2022-12-08T09:47:35.672Z,2.5
2022-12-08T10:07:32.105Z,2.7
2022-12-08T10:17:32.544Z,2.9
2022-12-08T10:27:33.602Z,3
2022-12-08T10:37:34.131Z,3.2
2022-12-08T10:47:34.414Z,3.3
2022-12-08T11:07:34.836Z,3.5
2022-12-08T11:37:36.117Z,3.5
2022-12-08T12:07:36.816Z,3.6
2022-12-08T12:57:40.138Z,3.5
2022-12-08T13:27:41.272Z,3.5
2022-12-08T13:37:50.923Z,3.5
2022-12-08T13:48:06.215Z,3.5
2022-12-08T13:57:43.356Z,3.5
2022-12-08T14:07:43.648Z,3.5
2022-12-08T14:17:43.659Z,3.4
2022-12-08T14:27:44.099Z,3.4
2022-12-08T14:37:44.319Z,3.3
2022-12-08T14:47:45.139Z,3.3
2022-12-08T14:57:45.686Z,3.2
2022-12-08T15:07:46.635Z,3.1
2022-12-08T15:17:46.633Z,3
2022-12-08T15:27:50.667Z,3
2022-12-08T15:37:47.878Z,3
2022-12-08T15:47:48.097Z,2.9
2022-12-08T16:07:52.938Z,3
2022-12-08T16:17:49.476Z,3
2022-12-08T16:28:01.697Z,3
2022-12-08T16:37:50.939Z,3
2022-12-08T16:57:51.831Z,3
2022-12-08T17:07:52.709Z,3
2022-12-08T17:17:53.097Z,3
2022-12-08T17:27:53.803Z,3
2022-12-08T17:37:54.836Z,3
2022-12-08T17:47:55.249Z,3
2022-12-08T17:57:55.483Z,3
2022-12-08T18:07:56.367Z,2.9
2022-12-08T18:17:56.776Z,2.8
2022-12-08T18:27:57.013Z,2.8
2022-12-08T18:37:57.864Z,2.7
2022-12-08T18:47:58.389Z,2.7
2022-12-08T18:57:59.476Z,2.6
2022-12-08T19:08:00.148Z,2.5
2022-12-08T19:18:01.226Z,2.4
2022-12-08T19:28:02.138Z,2.4
2022-12-08T19:48:03.376Z,2.5
2022-12-08T19:58:03.931Z,2.5
2022-12-08T20:08:04.115Z,2.5
2022-12-08T20:18:04.354Z,2.4
2022-12-08T20:28:04.735Z,2.4
2022-12-08T20:38:04.894Z,2.3
2022-12-08T20:58:06.185Z,2
2022-12-08T21:08:06.952Z,1.9
2022-12-08T21:18:07.401Z,1.9
2022-12-08T21:28:07.808Z,1.8
2022-12-08T21:38:08.005Z,1.7
2022-12-08T21:58:08.526Z,1.4
2022-12-08T22:08:09.714Z,1.2
2022-12-08T22:18:10.282Z,1.1
2022-12-08T22:28:11.193Z,1
2022-12-08T22:38:12.026Z,1.1
2022-12-08T22:48:12.163Z,1.1
2022-12-08T22:58:13.131Z,1.2
2022-12-08T23:08:14.010Z,1.2
2022-12-08T23:18:14.328Z,1.1
2022-12-08T23:28:14.807Z,1.1
2022-12-08T23:38:15.047Z,1
2022-12-08T23:48:15.643Z,1
2022-12-08T23:58:16.326Z,1
